Fort Worth, TX

03:59 AM CST on Φεβρουάριος 28, 2017 (GMT -0600)
Near Southside | | Change Station

Elev 673 ft 32.74 °N, 97.33 °W | Updated 4 minutes ago

Νεφοσκεπής
Νεφοσκεπής
68.8 ° F
Feels Like 68.8 ° F
N
8.0
Ανεμος Μεταβλητός Ανεμος from ΝΝΑ
Gusts 9.0 mph

Σήμερα
High -- | Low -- ° F
--% Chance of Precip.
Yesterday
High -- | Low -- ° F
Precip. -- in
Ατμοσφαιρική Πίεση 29.83 in
Ορατότητα 6.0 Μίλια
Σύννεφα Νεφοσκεπής 1100 ft
Σημείο Δρόσου 65 ° F
Υγρασία 88%
Rainfall 0.00 in
Snow Depth Not available.
6:57 AM 6:26 PM
Μηνίσκος, 4% visible
METAR KFTW 280953Z 19015KT 6SM HZ OVC011 21/18 A2985 RMK AO2 SLP102 T02060178
Ατμοσφαιρική Πίεση 29.83 in
Ορατότητα 6.0 Μίλια
Σύννεφα Νεφοσκεπής 1100 ft
Σημείο Δρόσου 65 ° F
Υγρασία 88%
Rainfall 0.00 in
Snow Depth Not available.
6:57 AM 6:26 PM
Μηνίσκος, 4% visible
METAR KFTW 280953Z 19015KT 6SM HZ OVC011 21/18 A2985 RMK AO2 SLP102 T02060178

Get Your Daily Forecast Email!

Thanks for signing up!

Be on the lookout for a verification email in your inbox.

You'll start receiving the daily forecast at 8 AM.

×

10-Day Weather Forecast

Almanac

Αστρονομία

Feb. 28, 2017 Rise Set
Actual Time
Civil Twilight
Nautical Twilight
Astronomical Twilight
Moon
Length Of Visible Light
Διάρκεια ημέρας
Tomorrow will be .
, % of the Moon is Illuminated

Today's Extremes

State Highs State Lows

Community

WunderPhotos

Upload Photos

1,962,540 photos uploaded!

WunderBlog® & News

Nearby

Air Quality

  Air Quality AQ Index Pollutant
Not available.

Snow Depth

Station Depth Elevation

Earthquake Activity

City Distance Mag. Time & Date
Minimum magnitude displayed is 2.5.

Coastal Water Temperatures

Τοποθεσία Θερμοκρασία

Stations

Nearby Weather Stations

Station Location Temp Δείκτης Ψυχρότητας Σημείο Δρόσου Υγρασία Ανεμος Precip. Elev Ενημερώθηκε Type
                   

Watches & Warnings

There are currently no watches in effect.